createdAt,value
2018-12-22T00:00:57.450Z,31.33
2018-12-22T00:03:25.393Z,40.30
2018-12-22T00:05:53.368Z,37.03
2018-12-22T00:08:21.439Z,43.37
2018-12-22T00:10:49.446Z,38.63
2018-12-22T00:13:17.466Z,34.07
2018-12-22T00:15:45.413Z,38.80
2018-12-22T00:18:13.394Z,35.37
2018-12-22T00:20:41.345Z,30.63
2018-12-22T00:23:09.350Z,32.17
2018-12-22T00:25:37.536Z,33.53
2018-12-22T00:28:05.542Z,35.30
2018-12-22T00:30:33.495Z,39.00
2018-12-22T00:33:01.474Z,49.70
2018-12-22T00:35:29.471Z,33.00
2018-12-22T00:37:57.452Z,32.03
2018-12-22T00:40:25.420Z,44.10
2018-12-22T00:42:53.394Z,31.27
2018-12-22T00:45:21.361Z,36.07
2018-12-22T00:47:49.337Z,35.53
2018-12-22T00:50:17.398Z,33.93
2018-12-22T00:52:45.392Z,30.53
2018-12-22T00:55:13.360Z,33.77
2018-12-22T00:57:41.334Z,36.33
2018-12-22T01:00:09.367Z,34.70
2018-12-22T01:02:37.357Z,45.73
2018-12-22T01:05:05.480Z,39.70
2018-12-22T01:07:33.486Z,42.77
2018-12-22T01:10:01.430Z,29.27
2018-12-22T01:12:29.467Z,33.57
2018-12-22T01:14:57.473Z,34.43
2018-12-22T01:17:25.396Z,37.70
2018-12-22T01:19:53.589Z,40.93
2018-12-22T01:22:21.552Z,41.10
2018-12-22T01:24:49.521Z,47.93
2018-12-22T01:27:17.489Z,34.60
2018-12-22T01:29:45.481Z,34.83
2018-12-22T01:32:13.606Z,41.20
2018-12-22T01:34:41.579Z,36.30
2018-12-22T01:37:09.560Z,38.17
2018-12-22T01:39:37.537Z,37.73
2018-12-22T01:42:05.496Z,35.83
2018-12-22T01:44:33.455Z,34.70
2018-12-22T01:47:01.424Z,36.03
2018-12-22T01:49:29.404Z,43.87
2018-12-22T01:51:57.387Z,39.97
2018-12-22T01:54:25.356Z,34.47
2018-12-22T01:56:53.314Z,35.57
2018-12-22T01:59:21.304Z,38.30
2018-12-22T02:01:49.271Z,40.80
2018-12-22T02:04:17.230Z,37.33
2018-12-22T02:06:45.198Z,39.63
2018-12-22T02:09:13.620Z,36.10
2018-12-22T02:11:41.594Z,38.27
2018-12-22T02:14:09.553Z,40.83
2018-12-22T02:16:37.522Z,40.17
2018-12-22T02:19:05.552Z,34.43
2018-12-22T02:21:33.553Z,38.37
2018-12-22T02:24:01.541Z,40.73
2018-12-22T02:26:29.520Z,31.97
2018-12-22T02:28:57.476Z,30.47
2018-12-22T02:31:25.460Z,36.17
2018-12-22T02:33:53.419Z,37.70
2018-12-22T02:36:21.396Z,33.20
2018-12-22T02:38:49.360Z,32.37
2018-12-22T02:41:17.453Z,34.17
2018-12-22T02:43:45.674Z,44.00
2018-12-22T02:46:13.727Z,28.60
2018-12-22T02:48:41.699Z,33.87
2018-12-22T02:51:09.760Z,28.00
2018-12-22T02:53:37.738Z,33.90
2018-12-22T02:56:05.712Z,33.37
2018-12-22T02:58:33.670Z,36.13
2018-12-22T03:01:01.646Z,29.07
2018-12-22T03:03:29.604Z,34.53
2018-12-22T03:05:58.299Z,28.00
2018-12-22T03:08:26.284Z,31.87
2018-12-22T03:10:54.249Z,30.13
2018-12-22T03:13:22.218Z,27.77
2018-12-22T03:15:50.177Z,31.63
2018-12-22T03:18:18.185Z,31.97
2018-12-22T03:20:46.137Z,26.93
2018-12-22T03:23:14.137Z,32.83
2018-12-22T03:25:42.116Z,32.70
2018-12-22T03:28:10.105Z,30.50
2018-12-22T03:30:38.073Z,28.27
2018-12-22T03:33:06.062Z,29.57
2018-12-22T03:35:34.028Z,31.93
2018-12-22T03:38:02.091Z,28.70
2018-12-22T03:40:30.071Z,29.10
2018-12-22T03:42:58.012Z,27.87
2018-12-22T03:45:26.097Z,24.80
2018-12-22T03:47:54.016Z,20.37
2018-12-22T03:50:22.083Z,19.73
2018-12-22T03:52:50.039Z,25.20
2018-12-22T03:55:18.012Z,19.23
2018-12-22T03:57:45.993Z,20.43
2018-12-22T04:00:14.084Z,21.67
2018-12-22T04:02:42.032Z,21.10
2018-12-22T04:05:10.022Z,19.83
2018-12-22T04:07:37.991Z,13.20
2018-12-22T04:10:06.606Z,16.50
2018-12-22T04:12:34.587Z,17.30
2018-12-22T04:15:02.713Z,11.27
2018-12-22T04:17:30.669Z,11.30
2018-12-22T04:19:58.653Z,16.23
2018-12-22T04:22:26.624Z,9.63
2018-12-22T04:24:55.624Z,11.07
2018-12-22T04:27:23.590Z,8.80
2018-12-22T04:29:51.579Z,13.50
2018-12-22T04:32:19.558Z,10.73
2018-12-22T04:34:47.541Z,11.50
2018-12-22T04:37:15.597Z,9.73
2018-12-22T04:39:43.574Z,11.43
2018-12-22T04:42:11.522Z,10.93
2018-12-22T04:44:39.484Z,12.77
2018-12-22T04:47:07.467Z,10.70
2018-12-22T04:49:35.437Z,11.60
2018-12-22T04:52:03.405Z,13.57
2018-12-22T04:54:31.353Z,10.87
2018-12-22T04:56:59.366Z,7.70
2018-12-22T04:59:27.360Z,16.50
2018-12-22T05:01:55.410Z,13.37
2018-12-22T05:04:23.357Z,7.83
2018-12-22T05:06:51.339Z,10.93
2018-12-22T05:09:19.542Z,10.03
2018-12-22T05:11:47.512Z,11.63
2018-12-22T05:14:15.599Z,7.33
2018-12-22T05:16:43.541Z,10.90
2018-12-22T05:19:11.532Z,13.23
2018-12-22T05:21:39.476Z,8.07
2018-12-22T05:24:07.448Z,12.00
2018-12-22T05:26:35.405Z,12.23
2018-12-22T05:29:03.358Z,8.40
2018-12-22T05:31:31.336Z,11.27
2018-12-22T05:33:59.338Z,13.07
2018-12-22T05:36:27.263Z,12.40
2018-12-22T05:38:55.237Z,10.53
2018-12-22T05:41:23.188Z,11.10
2018-12-22T05:43:51.175Z,13.50
2018-12-22T05:46:19.131Z,14.57
2018-12-22T05:48:47.100Z,14.07
2018-12-22T05:51:15.052Z,13.37
2018-12-22T05:53:43.207Z,11.80
2018-12-22T05:56:11.168Z,5.67
2018-12-22T05:58:39.564Z,4.70
2018-12-22T06:01:07.521Z,2.33
2018-12-22T06:03:35.504Z,3.87
2018-12-22T06:06:03.444Z,1.03
2018-12-22T06:08:31.444Z,0.87
2018-12-22T06:10:59.413Z,1.13
2018-12-22T06:13:27.380Z,0.60
2018-12-22T06:15:55.405Z,1.80
2018-12-22T06:18:23.345Z,1.00
2018-12-22T06:20:51.307Z,0.73
2018-12-22T06:23:19.280Z,2.33
2018-12-22T06:25:47.232Z,1.17
2018-12-22T06:28:15.174Z,0.73
2018-12-22T06:30:43.144Z,0.60
2018-12-22T06:33:11.088Z,0.70
2018-12-22T06:35:39.057Z,1.57
2018-12-22T06:38:06.994Z,1.57
2018-12-22T06:40:35.039Z,0.87
2018-12-22T06:43:02.986Z,3.10
2018-12-22T06:45:31.085Z,4.17
2018-12-22T06:47:59.086Z,3.27
2018-12-22T06:50:27.060Z,2.33
2018-12-22T06:52:55.004Z,2.47
2018-12-22T06:55:22.982Z,2.37
2018-12-22T06:57:51.109Z,3.00
2018-12-22T07:00:19.079Z,3.10
2018-12-22T07:02:47.029Z,3.70
2018-12-22T07:05:15.005Z,3.43
2018-12-22T07:07:43.210Z,8.47
2018-12-22T07:10:11.518Z,5.33
2018-12-22T07:12:39.604Z,4.07
2018-12-22T07:15:07.562Z,2.90
2018-12-22T07:17:35.547Z,6.67
2018-12-22T07:20:03.854Z,4.17
2018-12-22T07:22:31.854Z,3.30
2018-12-22T07:24:59.811Z,7.07
2018-12-22T07:27:27.768Z,8.80
2018-12-22T07:29:55.730Z,3.57
2018-12-22T07:32:23.702Z,6.60
2018-12-22T07:34:51.640Z,9.00
2018-12-22T07:37:19.691Z,8.13
2018-12-22T07:39:47.639Z,6.47
2018-12-22T07:42:15.714Z,7.60
2018-12-22T07:44:43.643Z,8.80
2018-12-22T07:47:11.605Z,7.00
2018-12-22T07:49:39.560Z,11.13
2018-12-22T07:52:08.108Z,11.63
2018-12-22T07:54:36.064Z,8.43
2018-12-22T07:57:04.029Z,11.37
2018-12-22T07:59:31.994Z,9.83
2018-12-22T08:01:59.956Z,8.83
2018-12-22T08:04:28.758Z,8.33
2018-12-22T08:06:56.670Z,8.77
2018-12-22T08:09:24.654Z,6.07
2018-12-22T08:11:52.601Z,8.43
2018-12-22T08:14:20.574Z,10.23
2018-12-22T08:16:48.545Z,8.07
2018-12-22T08:19:16.523Z,8.50
2018-12-22T08:21:44.719Z,8.37
2018-12-22T08:24:12.738Z,8.27
2018-12-22T08:26:40.687Z,13.30
2018-12-22T08:29:08.652Z,10.70
2018-12-22T08:31:36.628Z,11.23
2018-12-22T08:34:04.625Z,7.77
2018-12-22T08:36:32.839Z,11.43
2018-12-22T08:39:00.767Z,7.10
2018-12-22T08:41:28.850Z,8.83
2018-12-22T08:43:56.801Z,6.90
2018-12-22T08:46:24.796Z,8.50
2018-12-22T08:48:52.761Z,6.83
2018-12-22T08:51:20.726Z,7.33
2018-12-22T08:53:48.677Z,3.80
2018-12-22T08:56:16.660Z,8.97
2018-12-22T08:58:44.607Z,8.83
2018-12-22T09:01:12.602Z,8.00
2018-12-22T09:03:40.544Z,7.30
2018-12-22T09:06:08.525Z,6.17
2018-12-22T09:08:36.493Z,6.87
2018-12-22T09:11:04.489Z,5.97
2018-12-22T09:13:32.476Z,7.37
2018-12-22T09:16:00.530Z,7.77
2018-12-22T09:18:28.502Z,8.60
2018-12-22T09:20:56.507Z,8.87
2018-12-22T09:23:24.510Z,12.43
2018-12-22T09:25:52.445Z,9.67
2018-12-22T09:28:20.434Z,5.27
2018-12-22T09:30:48.381Z,8.77
2018-12-22T09:33:16.365Z,14.73
2018-12-22T09:35:44.376Z,5.67
2018-12-22T09:38:12.346Z,8.97
2018-12-22T09:40:40.312Z,10.70
2018-12-22T09:43:08.289Z,11.40
2018-12-22T09:45:36.262Z,5.20
2018-12-22T09:48:04.229Z,10.17
2018-12-22T09:50:32.296Z,7.83
2018-12-22T09:53:00.243Z,7.20
2018-12-22T09:55:28.232Z,13.07
2018-12-22T09:57:56.214Z,9.33
2018-12-22T10:00:24.197Z,7.63
2018-12-22T10:02:52.181Z,8.10
2018-12-22T10:05:20.137Z,11.70
2018-12-22T10:07:48.134Z,9.80
2018-12-22T10:10:16.085Z,8.03
2018-12-22T10:12:44.073Z,14.20
2018-12-22T10:15:12.068Z,12.37
2018-12-22T10:17:40.040Z,10.27
2018-12-22T10:20:08.218Z,11.70
2018-12-22T10:22:36.181Z,8.90
2018-12-22T10:25:06.040Z,10.77
2018-12-22T10:27:34.010Z,9.47
2018-12-22T10:30:02.409Z,13.73
2018-12-22T10:32:30.388Z,7.83
2018-12-22T10:34:58.372Z,8.00
2018-12-22T10:37:26.342Z,8.73
2018-12-22T10:39:54.342Z,12.27
2018-12-22T10:42:22.313Z,5.00
2018-12-22T10:44:50.568Z,9.30
2018-12-22T10:47:18.516Z,11.77
2018-12-22T10:49:46.552Z,10.10
2018-12-22T10:52:14.561Z,11.93
2018-12-22T10:54:42.518Z,6.63
2018-12-22T10:57:17.968Z,7.73
2018-12-22T10:59:45.913Z,5.67
2018-12-22T11:02:13.922Z,10.40
2018-12-22T11:04:41.884Z,7.33
2018-12-22T11:07:09.844Z,10.30
2018-12-22T11:09:37.805Z,10.27
2018-12-22T11:12:05.787Z,8.93
2018-12-22T11:14:33.772Z,5.63
2018-12-22T11:17:01.737Z,8.77
2018-12-22T11:19:29.710Z,7.73
2018-12-22T11:21:57.677Z,8.90
2018-12-22T11:24:25.633Z,7.20
2018-12-22T11:26:53.923Z,9.43
2018-12-22T11:29:21.910Z,6.70
2018-12-22T11:31:49.874Z,8.03
2018-12-22T11:34:17.845Z,10.37
2018-12-22T11:36:45.828Z,8.23
2018-12-22T11:39:13.826Z,9.07
2018-12-22T11:41:41.807Z,9.83
2018-12-22T11:44:09.782Z,12.23
2018-12-22T11:46:37.819Z,8.23
2018-12-22T11:49:06.970Z,10.50
2018-12-22T11:51:34.957Z,12.50
2018-12-22T11:54:03.791Z,12.03
2018-12-22T11:56:31.762Z,11.07
2018-12-22T11:58:59.732Z,14.23
2018-12-22T12:01:27.752Z,12.30
2018-12-22T12:03:55.756Z,10.43
2018-12-22T12:06:23.744Z,11.40
2018-12-22T12:08:51.741Z,14.47
2018-12-22T12:11:19.698Z,15.70
2018-12-22T12:13:47.689Z,11.93
2018-12-22T12:16:17.699Z,10.60
2018-12-22T12:18:51.081Z,12.33
2018-12-22T12:21:19.045Z,10.57
2018-12-22T12:23:47.043Z,13.73
2018-12-22T12:26:14.998Z,13.00
2018-12-22T12:28:42.992Z,13.33
2018-12-22T12:31:10.952Z,12.80
2018-12-22T12:33:38.934Z,9.97
2018-12-22T12:36:06.892Z,13.80
2018-12-22T12:38:34.896Z,11.17
2018-12-22T12:41:02.871Z,9.93
2018-12-22T12:43:30.827Z,11.33
2018-12-22T12:45:58.841Z,12.57
2018-12-22T12:48:26.824Z,11.90
2018-12-22T12:50:54.792Z,10.60
2018-12-22T12:53:22.755Z,14.60
2018-12-22T12:55:50.722Z,9.80
2018-12-22T12:58:18.753Z,11.03
2018-12-22T13:00:46.737Z,12.10
2018-12-22T13:03:14.708Z,13.93
2018-12-22T13:05:42.693Z,17.43
2018-12-22T13:08:10.632Z,13.37
2018-12-22T13:10:38.616Z,11.77
2018-12-22T13:13:13.376Z,12.77
2018-12-22T13:15:41.358Z,12.53
2018-12-22T13:18:09.326Z,11.43
2018-12-22T13:20:37.303Z,13.53
2018-12-22T13:23:08.181Z,12.30
2018-12-22T13:25:36.165Z,12.27
2018-12-22T13:28:04.127Z,6.33
2018-12-22T13:30:32.448Z,8.17
2018-12-22T13:33:00.890Z,9.63
2018-12-22T13:35:29.012Z,6.73
2018-12-22T13:37:56.991Z,8.10
2018-12-22T13:40:24.946Z,7.17
2018-12-22T13:42:52.929Z,4.83
2018-12-22T13:45:20.896Z,9.83
2018-12-22T13:47:48.956Z,8.60
2018-12-22T13:50:17.090Z,8.87
2018-12-22T13:52:45.190Z,4.70
2018-12-22T13:55:13.420Z,4.10
2018-12-22T13:57:42.853Z,4.97
2018-12-22T14:00:14.413Z,6.03
2018-12-22T14:02:42.392Z,4.37
2018-12-22T14:05:26.746Z,5.30
2018-12-22T14:07:54.886Z,3.27
2018-12-22T14:10:24.787Z,4.17
2018-12-22T14:12:52.951Z,5.70
2018-12-22T14:15:22.327Z,7.70
2018-12-22T14:20:57.413Z,5.83
2018-12-22T14:23:30.232Z,7.70
2018-12-22T14:25:58.174Z,5.83
2018-12-22T14:28:26.152Z,9.63
2018-12-22T14:30:54.110Z,17.00
2018-12-22T14:33:22.101Z,9.77
2018-12-22T14:35:50.523Z,12.30
2018-12-22T14:38:18.486Z,11.43
2018-12-22T14:40:46.549Z,12.07
2018-12-22T14:43:15.051Z,13.27
2018-12-22T14:45:43.026Z,10.10
2018-12-22T14:48:10.972Z,12.37
2018-12-22T14:50:38.970Z,10.13
2018-12-22T14:53:06.931Z,12.77
2018-12-22T14:55:34.937Z,14.03
2018-12-22T14:58:04.040Z,14.43
2018-12-22T15:00:32.016Z,14.97
2018-12-22T15:02:59.999Z,11.20
2018-12-22T15:05:28.900Z,11.73
2018-12-22T15:07:57.020Z,14.80
2018-12-22T15:10:24.996Z,12.00
2018-12-22T15:12:53.031Z,16.83
2018-12-22T15:15:20.997Z,13.13
2018-12-22T15:17:48.939Z,11.30
2018-12-22T15:20:27.107Z,13.77
2018-12-22T15:22:55.056Z,17.40
2018-12-22T15:25:23.052Z,12.58
2018-12-22T15:27:51.065Z,14.20
2018-12-22T15:30:19.032Z,12.77
2018-12-22T15:32:54.513Z,12.13
2018-12-22T15:35:16.936Z,12.67
2018-12-22T15:37:44.898Z,11.80
2018-12-22T15:40:12.936Z,12.13
2018-12-22T15:42:40.931Z,17.10
2018-12-22T15:45:15.494Z,10.13
2018-12-22T15:47:44.317Z,11.30
2018-12-22T15:50:31.885Z,12.13
2018-12-22T15:52:59.867Z,13.23
2018-12-22T15:55:27.836Z,16.47
2018-12-22T15:57:55.838Z,11.00
2018-12-22T16:00:23.748Z,8.57
2018-12-22T16:02:53.379Z,15.67
2018-12-22T16:05:21.684Z,10.77
2018-12-22T16:07:49.669Z,15.77
2018-12-22T16:10:17.650Z,13.35
2018-12-22T16:12:45.615Z,11.30
2018-12-22T16:15:17.900Z,13.27
2018-12-22T16:17:45.848Z,16.43
2018-12-22T16:20:13.836Z,11.90
2018-12-22T16:22:52.487Z,16.30
2018-12-22T16:25:20.459Z,11.33
2018-12-22T16:27:48.633Z,14.07
2018-12-22T16:30:23.624Z,12.73
2018-12-22T16:32:51.567Z,10.80
2018-12-22T16:35:19.561Z,13.97
2018-12-22T16:37:47.552Z,12.87
2018-12-22T16:40:15.648Z,16.53
2018-12-22T16:42:43.635Z,16.82
2018-12-22T16:45:14.901Z,12.20
2018-12-22T16:47:43.252Z,16.07
2018-12-22T16:50:14.284Z,14.40
2018-12-22T16:52:42.483Z,14.20
2018-12-22T16:55:15.547Z,13.17
2018-12-22T16:57:57.381Z,15.00
2018-12-22T17:00:33.030Z,13.53
2018-12-22T17:03:00.953Z,12.23
2018-12-22T17:05:28.963Z,13.73
2018-12-22T17:07:56.883Z,14.73
2018-12-22T17:10:25.620Z,16.80
2018-12-22T17:12:53.616Z,13.40
2018-12-22T17:15:22.667Z,11.33
2018-12-22T17:17:51.593Z,18.23
2018-12-22T17:20:19.569Z,17.73
2018-12-22T17:25:58.459Z,19.40
2018-12-22T17:28:28.571Z,19.00
2018-12-22T17:30:56.393Z,12.43
2018-12-22T17:33:24.393Z,13.77
2018-12-22T17:35:52.329Z,15.40
2018-12-22T17:38:20.828Z,15.70
2018-12-22T17:40:49.003Z,16.87
2018-12-22T17:43:17.027Z,14.70
2018-12-22T17:45:45.115Z,15.60
2018-12-22T17:48:13.101Z,14.80
2018-12-22T17:50:41.104Z,13.87
2018-12-22T17:53:09.088Z,12.07
2018-12-22T17:55:37.037Z,20.30
2018-12-22T17:58:05.048Z,15.50
2018-12-22T18:00:33.004Z,14.90
2018-12-22T18:03:01.164Z,19.80
2018-12-22T18:05:29.213Z,19.67
2018-12-22T18:07:57.213Z,17.67
2018-12-22T18:10:25.171Z,20.33
2018-12-22T18:12:53.140Z,19.13
2018-12-22T18:15:24.066Z,16.17
2018-12-22T18:17:52.938Z,14.67
2018-12-22T18:20:20.918Z,23.60
2018-12-22T18:22:48.914Z,21.30
2018-12-22T18:25:18.656Z,23.50
2018-12-22T18:27:48.988Z,17.50
2018-12-22T18:30:17.452Z,21.67
2018-12-22T18:32:45.845Z,17.87
2018-12-22T18:35:13.819Z,17.87
2018-12-22T18:37:41.769Z,23.03
2018-12-22T18:40:12.429Z,17.30
2018-12-22T18:42:40.384Z,17.43
2018-12-22T18:45:10.777Z,20.40
2018-12-22T18:47:39.338Z,14.97
2018-12-22T18:50:14.865Z,15.83
2018-12-22T18:52:42.788Z,21.53
2018-12-22T18:55:10.821Z,21.90
2018-12-22T18:57:38.865Z,25.13
2018-12-22T19:00:19.845Z,21.37
2018-12-22T19:02:47.929Z,23.47
2018-12-22T19:05:16.999Z,22.37
2018-12-22T19:07:45.098Z,21.57
2018-12-22T19:10:19.848Z,18.17
2018-12-22T19:12:47.779Z,19.23
2018-12-22T19:15:15.768Z,20.47
2018-12-22T19:17:43.748Z,19.00
2018-12-22T19:20:15.373Z,17.47
2018-12-22T19:22:43.332Z,19.90
2018-12-22T19:25:11.311Z,22.77
2018-12-22T19:27:39.261Z,17.93
2018-12-22T19:30:08.216Z,21.73
2018-12-22T19:32:36.179Z,21.80
2018-12-22T19:35:05.532Z,17.23
2018-12-22T19:37:33.492Z,16.20
2018-12-22T19:40:01.453Z,19.20
2018-12-22T19:42:29.409Z,13.87
2018-12-22T19:44:57.368Z,21.73
2018-12-22T19:47:25.458Z,19.10
2018-12-22T19:49:53.409Z,17.83
2018-12-22T19:52:21.378Z,16.60
2018-12-22T19:54:49.325Z,15.57
2018-12-22T19:57:17.306Z,19.13
2018-12-22T19:59:45.253Z,22.23
2018-12-22T20:02:13.244Z,21.33
2018-12-22T20:04:41.234Z,22.53
2018-12-22T20:07:09.209Z,20.60
2018-12-22T20:09:37.161Z,18.70
2018-12-22T20:12:05.108Z,23.50
2018-12-22T20:14:33.205Z,16.20
2018-12-22T20:17:01.204Z,21.20
2018-12-22T20:19:29.202Z,20.37
2018-12-22T20:21:57.145Z,14.87
2018-12-22T20:24:25.151Z,20.30
2018-12-22T20:26:53.113Z,17.27
2018-12-22T20:29:21.725Z,21.77
2018-12-22T20:31:50.957Z,13.97
2018-12-22T20:34:19.048Z,18.10
2018-12-22T20:36:47.000Z,16.17
2018-12-22T20:39:15.021Z,19.10
2018-12-22T20:41:42.951Z,13.73
2018-12-22T20:44:10.939Z,22.63
2018-12-22T20:46:38.908Z,17.37
2018-12-22T20:49:06.887Z,13.87
2018-12-22T20:51:34.834Z,18.73
2018-12-22T20:54:02.925Z,18.97
2018-12-22T20:56:30.913Z,21.40
2018-12-22T20:58:58.891Z,19.07
2018-12-22T21:01:27.740Z,21.23
2018-12-22T21:03:55.721Z,17.73
2018-12-22T21:06:27.654Z,18.27
2018-12-22T21:08:55.643Z,21.93
2018-12-22T21:11:23.590Z,19.60
2018-12-22T21:13:51.534Z,24.43
2018-12-22T21:16:19.599Z,23.27
2018-12-22T21:18:47.513Z,21.07
2018-12-22T21:21:15.656Z,22.13
2018-12-22T21:23:43.622Z,18.73
2018-12-22T21:26:11.627Z,17.37
2018-12-22T21:28:39.598Z,25.77
2018-12-22T21:31:07.573Z,22.60
2018-12-22T21:33:43.804Z,26.63
2018-12-22T21:36:12.234Z,22.80
2018-12-22T21:38:40.205Z,22.67
2018-12-22T21:41:08.153Z,20.70
2018-12-22T21:43:36.188Z,18.10
2018-12-22T21:46:04.191Z,23.93
2018-12-22T21:48:32.173Z,24.83
2018-12-22T21:51:00.109Z,19.30
2018-12-22T21:53:28.133Z,18.10
2018-12-22T21:55:56.057Z,21.17
2018-12-22T21:58:24.068Z,24.60
2018-12-22T22:00:52.023Z,19.43
2018-12-22T22:03:20.070Z,21.07
2018-12-22T22:05:48.104Z,21.90
2018-12-22T22:08:16.903Z,19.33
2018-12-22T22:10:44.859Z,14.50
2018-12-22T22:13:12.810Z,19.17
2018-12-22T22:15:42.913Z,21.27
2018-12-22T22:18:11.437Z,23.63
2018-12-22T22:20:39.405Z,22.37
2018-12-22T22:23:07.436Z,21.40
2018-12-22T22:25:35.418Z,20.63
2018-12-22T22:28:03.408Z,24.80
2018-12-22T22:30:31.344Z,23.70
2018-12-22T22:32:59.324Z,26.23
2018-12-22T22:35:27.273Z,24.07
2018-12-22T22:37:55.257Z,19.07
2018-12-22T22:40:23.223Z,21.53
2018-12-22T22:42:51.192Z,20.63
2018-12-22T22:45:19.144Z,20.93
2018-12-22T22:47:47.132Z,20.30
2018-12-22T22:50:15.101Z,23.27
2018-12-22T22:52:43.071Z,26.03
2018-12-22T22:55:11.045Z,23.40
2018-12-22T22:57:39.022Z,16.20
2018-12-22T23:00:07.864Z,20.50
2018-12-22T23:02:35.820Z,22.73
2018-12-22T23:05:04.257Z,20.27
2018-12-22T23:07:32.223Z,24.83
2018-12-22T23:10:00.273Z,26.57
2018-12-22T23:12:28.320Z,24.47
2018-12-22T23:14:56.274Z,21.33
2018-12-22T23:17:25.171Z,29.47
2018-12-22T23:19:53.162Z,24.70
2018-12-22T23:22:21.117Z,23.03
2018-12-22T23:24:49.091Z,25.70
2018-12-22T23:27:17.045Z,24.27
2018-12-22T23:29:45.013Z,24.50
2018-12-22T23:32:12.988Z,31.17
2018-12-22T23:34:41.066Z,22.27
2018-12-22T23:37:08.996Z,26.70
2018-12-22T23:39:36.947Z,23.17
2018-12-22T23:42:04.928Z,25.00
2018-12-22T23:44:32.909Z,23.83
2018-12-22T23:47:00.896Z,22.80
2018-12-22T23:49:28.880Z,22.97
2018-12-22T23:51:56.935Z,25.87
2018-12-22T23:54:24.850Z,30.23
2018-12-22T23:56:52.821Z,23.37
2018-12-22T23:59:20.787Z,28.07
